ニジネヴァルトフスク の空港の天気 - METARとTAF

Nizhnevartovsk ( USNN / NJC ) - ロシア ニジネヴァルトフスク
飛行場実況気象(Metar)
観測時間11/27 12:30 YEKT (11/27 07:30 UTC)
風向・風速西南西 4m/s
視程10km以上
天気現象
全天の8割程度の雲 雲底高度 1370m
気温-20℃
湿度77%
気圧1048hPa
METARUSNN 270730Z 25004MPS 9999 BKN045 M20/M23 Q1048 R21/490535 NOSIG RMK QFE781
過去の天気等 Google飛行場航空写真 Wunderground天気予報

過去48時間のMETAR

飛行場予報(TAF)
発表時間: 11/27 09:53 YEKT (11/27 04:53 UTC)
予報対象時間: 27日11時 YEKT ~ 28日11時 YEKT
風向・風速西南西 3m/s 瞬間風速 8m/s
視程10km以上
全天の8割程度の雲 雲底高度 520m
全天を覆う雲 雲底高度 1220m
27日11時 YEKT ~ 27日17時 YEKT に一時的に
天気現象弱いしゅう雪
全天の4割程度の積乱雲 雲底高度 490m
TAF USNN 270453Z 2706/2806 24003G08MPS 9999 BKN017 OVC040
TEMPO 2706/2712 -SHSN SCT016CB